Time;durP1;ratioP1;P1;durP2;ratioP2;P2;SDS_P1;SDS_P2;PMS_P1;PMS_P2;Temp;Humidity;BMP_temperature;BMP_pressure;BME280_temperature;BME280_humidity;BME280_pressure;Samples;Min_cycle;Max_cycle;Signal;HPM_P1;HPM_P2
2023/09/12 00:00:06;;;;;;;10.27;8.80;;;;;;;18.31;100.00;97804.25;4998697;28;20217;-85
2023/09/12 00:02:33;;;;;;;10.90;9.03;;;;;;;18.25;100.00;97799.50;4998919;28;20608;-84
2023/09/12 00:04:59;;;;;;;12.83;9.80;;;;;;;18.20;100.00;97793.81;4998238;28;20210;-84
2023/09/12 00:07:26;;;;;;;11.90;9.63;;;;;;;18.14;100.00;97797.13;4999279;28;20214;-84
2023/09/12 00:09:52;;;;;;;15.50;9.23;;;;;;;18.13;100.00;97795.44;4999472;28;20214;-85
2023/09/12 00:12:24;;;;;;;14.27;9.33;;;;;;;18.09;100.00;97783.38;4999981;28;20237;-85
2023/09/12 00:14:51;;;;;;;10.57;9.03;;;;;;;18.05;100.00;97782.03;5000022;28;20578;-85
2023/09/12 00:17:18;;;;;;;13.13;9.80;;;;;;;18.02;100.00;97786.84;5000337;28;20214;-85
2023/09/12 00:19:44;;;;;;;12.13;8.47;;;;;;;17.99;100.00;97788.00;5000142;28;20213;-84
2023/09/12 00:22:11;;;;;;;13.37;9.30;;;;;;;17.98;100.00;97786.34;4997691;28;20228;-85
2023/09/12 00:24:38;;;;;;;10.33;8.70;;;;;;;17.93;100.00;97777.13;4997767;28;20218;-85
2023/09/12 00:27:05;;;;;;;10.70;9.17;;;;;;;17.88;100.00;97774.94;4997588;28;20284;-84
2023/09/12 00:29:32;;;;;;;12.03;8.90;;;;;;;17.86;100.00;97782.25;4998025;28;20301;-85
2023/09/12 00:32:00;;;;;;;11.27;9.53;;;;;;;17.86;100.00;97773.44;4998544;28;20230;-84
2023/09/12 00:34:26;;;;;;;11.47;9.10;;;;;;;17.86;100.00;97776.91;4998389;28;20234;-85
2023/09/12 00:36:52;;;;;;;10.50;8.47;;;;;;;17.85;100.00;97771.75;4999107;28;20210;-85
2023/09/12 00:39:19;;;;;;;11.43;8.77;;;;;;;17.83;100.00;97771.91;4998296;28;20210;-85
2023/09/12 00:41:45;;;;;;;12.13;8.77;;;;;;;17.82;100.00;97775.59;4997897;28;20234;-85
2023/09/12 00:44:12;;;;;;;13.33;9.60;;;;;;;17.81;100.00;97775.72;4998513;28;20229;-85
2023/09/12 00:46:39;;;;;;;10.53;9.07;;;;;;;17.83;100.00;97779.94;4997917;28;20210;-85
2023/09/12 00:49:08;;;;;;;11.33;9.23;;;;;;;17.81;100.00;97779.22;4997890;28;20226;-86
2023/09/12 00:51:36;;;;;;;11.30;8.33;;;;;;;17.85;100.00;97779.78;4997382;28;20237;-85
2023/09/12 00:54:02;;;;;;;12.33;8.90;;;;;;;17.86;100.00;97771.56;4998433;28;20241;-85
2023/09/12 00:56:29;;;;;;;12.03;9.27;;;;;;;17.84;100.00;97776.25;4998602;28;20294;-85
2023/09/12 00:58:57;;;;;;;10.83;8.63;;;;;;;17.84;100.00;97776.25;4998210;28;20579;-85
2023/09/12 01:01:24;;;;;;;11.43;9.37;;;;;;;17.87;100.00;97772.44;4997504;28;20735;-83
2023/09/12 01:03:51;;;;;;;11.93;9.30;;;;;;;17.85;100.00;97775.25;4996062;28;20210;-85
2023/09/12 01:06:20;;;;;;;13.70;9.93;;;;;;;17.89;100.00;97781.13;4996360;28;20218;-86
2023/09/12 01:08:47;;;;;;;13.40;9.87;;;;;;;17.94;100.00;97784.16;4996219;28;20264;-86
2023/09/12 01:11:14;;;;;;;11.43;9.50;;;;;;;17.94;100.00;97774.31;4995268;28;20471;-86
2023/09/12 01:13:41;;;;;;;14.80;10.00;;;;;;;17.96;100.00;97772.31;4996676;28;20233;-86
2023/09/12 01:16:07;;;;;;;14.83;9.80;;;;;;;17.98;100.00;97775.63;4998252;28;20210;-84
2023/09/12 01:18:34;;;;;;;12.23;9.80;;;;;;;17.97;100.00;97773.13;4998462;28;20221;-85
2023/09/12 01:21:20;;;;;;;13.37;9.67;;;;;;;17.93;100.00;97769.94;4997358;28;20344;-84
2023/09/12 01:24:06;;;;;;;14.03;10.37;;;;;;;17.93;100.00;97761.91;4998350;28;20195;-84
2023/09/12 01:26:46;;;;;;;12.80;10.00;;;;;;;17.91;100.00;97763.09;5000847;28;20210;-84
2023/09/12 01:29:16;;;;;;;13.67;10.43;;;;;;;17.84;100.00;97762.03;5002274;28;20211;-84
2023/09/12 01:31:45;;;;;;;14.77;10.67;;;;;;;17.77;100.00;97759.19;5001659;28;20232;-84
2023/09/12 01:34:14;;;;;;;12.67;10.27;;;;;;;17.71;100.00;97762.50;4999875;28;20230;-84
2023/09/12 01:36:40;;;;;;;13.50;10.40;;;;;;;17.65;100.00;97763.13;5002137;28;20214;-84
2023/09/12 01:39:07;;;;;;;12.90;9.77;;;;;;;17.58;100.00;97772.78;5001499;28;20221;-84
2023/09/12 01:41:40;;;;;;;13.97;10.23;;;;;;;17.51;100.00;97766.38;4999448;28;20230;-84
2023/09/12 01:44:10;;;;;;;12.83;9.40;;;;;;;17.51;100.00;97771.72;4999759;28;20210;-84
2023/09/12 01:46:39;;;;;;;13.13;9.53;;;;;;;17.45;100.00;97767.03;4998805;28;20300;-86
2023/09/12 01:49:08;;;;;;;12.73;9.80;;;;;;;17.41;100.00;97765.66;4999836;28;20677;-84
2023/09/12 01:51:35;;;;;;;12.07;9.43;;;;;;;17.38;100.00;97765.94;4999495;28;20226;-85
2023/09/12 01:54:02;;;;;;;11.37;9.07;;;;;;;17.34;100.00;97767.22;4999756;28;20635;-85
2023/09/12 01:56:29;;;;;;;12.83;9.43;;;;;;;17.29;100.00;97772.19;5000327;28;20280;-85
2023/09/12 01:58:56;;;;;;;12.83;9.00;;;;;;;17.28;100.00;97773.19;5000198;28;20233;-85
2023/09/12 02:01:26;;;;;;;13.87;9.73;;;;;;;17.27;100.00;97768.84;4998769;28;20237;-85
2023/09/12 02:03:54;;;;;;;13.50;9.87;;;;;;;17.29;100.00;97771.34;4998921;28;20237;-85
2023/09/12 02:06:21;;;;;;;12.20;9.90;;;;;;;17.32;100.00;97766.53;4999154;28;20221;-85
2023/09/12 02:08:47;;;;;;;10.90;9.10;;;;;;;17.36;100.00;97772.41;4998868;28;20210;-85
2023/09/12 02:11:14;;;;;;;15.00;9.80;;;;;;;17.39;100.00;97764.97;4998500;28;20288;-85
2023/09/12 02:13:40;;;;;;;13.30;10.17;;;;;;;17.37;100.00;97758.06;4998733;28;20210;-84
2023/09/12 02:16:06;;;;;;;12.40;9.87;;;;;;;17.34;100.00;97769.91;4998885;28;20206;-84
2023/09/12 02:18:33;;;;;;;11.70;9.83;;;;;;;17.29;100.00;97766.84;4999139;28;20214;-85
2023/09/12 02:21:01;;;;;;;11.67;8.93;;;;;;;17.29;100.00;97763.34;5000257;28;20234;-85
2023/09/12 02:23:27;;;;;;;11.30;8.83;;;;;;;17.21;100.00;97763.28;5000808;28;20361;-85
2023/09/12 02:25:54;;;;;;;10.47;8.50;;;;;;;17.17;100.00;97762.75;5001414;28;20205;-85
2023/09/12 02:28:20;;;;;;;10.30;8.40;;;;;;;17.13;100.00;97763.25;5001367;28;20217;-85
2023/09/12 02:30:47;;;;;;;13.03;9.67;;;;;;;17.04;100.00;97767.69;4999572;28;20241;-85
2023/09/12 02:33:13;;;;;;;13.07;9.70;;;;;;;17.04;100.00;97762.34;4998652;28;20691;-85
2023/09/12 02:35:40;;;;;;;14.53;10.53;;;;;;;17.09;100.00;97760.03;4998647;28;20695;-86
2023/09/12 02:38:08;;;;;;;14.07;10.87;;;;;;;17.14;100.00;97757.72;4997695;28;20224;-87
2023/09/12 02:40:34;;;;;;;15.37;11.77;;;;;;;17.24;100.00;97758.47;4998538;28;20241;-85
2023/09/12 02:43:01;;;;;;;16.43;11.17;;;;;;;17.32;100.00;97742.50;4998089;28;20702;-85
2023/09/12 02:45:27;;;;;;;15.10;11.80;;;;;;;17.40;100.00;97747.94;4999049;28;20692;-85
2023/09/12 02:47:53;;;;;;;14.57;10.97;;;;;;;17.42;100.00;97748.63;4998305;28;20611;-85
2023/09/12 02:50:20;;;;;;;16.37;11.97;;;;;;;17.41;100.00;97740.75;4998268;28;20234;-84
2023/09/12 02:52:46;;;;;;;16.53;10.63;;;;;;;17.38;100.00;97731.22;4998371;28;20225;-85
2023/09/12 02:55:14;;;;;;;13.53;10.50;;;;;;;17.30;100.00;97733.81;4997833;28;20241;-84
2023/09/12 02:57:41;;;;;;;13.77;9.77;;;;;;;17.22;100.00;97739.09;4998441;28;20585;-85
2023/09/12 03:00:09;;;;;;;13.47;9.10;;;;;;;17.14;100.00;97736.34;4998503;28;20218;-85
2023/09/12 03:02:35;;;;;;;12.67;8.87;;;;;;;17.03;100.00;97739.31;4998976;28;20549;-84
2023/09/12 03:05:02;;;;;;;12.53;8.73;;;;;;;16.98;100.00;97744.25;4998816;28;20210;-85
2023/09/12 03:07:30;;;;;;;11.97;8.97;;;;;;;16.89;100.00;97742.50;4998707;28;20217;-84
2023/09/12 03:09:57;;;;;;;11.90;8.97;;;;;;;16.83;100.00;97743.13;4998039;28;20587;-84
2023/09/12 03:12:24;;;;;;;11.37;8.67;;;;;;;16.76;100.00;97742.06;4998760;28;20217;-85
2023/09/12 03:14:51;;;;;;;11.37;8.90;;;;;;;16.76;100.00;97738.56;5000229;28;20234;-85
2023/09/12 03:17:17;;;;;;;12.17;9.00;;;;;;;16.77;100.00;97745.59;4998932;28;20210;-85
2023/09/12 03:19:44;;;;;;;12.93;9.67;;;;;;;16.71;100.00;97747.00;4998852;28;20210;-84
2023/09/12 03:22:10;;;;;;;12.47;10.10;;;;;;;16.74;100.00;97754.72;4998527;28;20245;-85
2023/09/12 03:24:37;;;;;;;15.77;9.87;;;;;;;16.76;100.00;97752.75;4999857;28;20206;-85
2023/09/12 03:27:04;;;;;;;13.43;9.43;;;;;;;16.78;100.00;97750.78;4998946;28;20237;-85
2023/09/12 03:29:31;;;;;;;12.93;9.90;;;;;;;16.79;100.00;97739.09;4998999;28;20214;-84
2023/09/12 03:31:58;;;;;;;12.73;10.30;;;;;;;16.80;100.00;97742.59;4998949;28;20712;-85
2023/09/12 03:34:24;;;;;;;12.83;9.67;;;;;;;16.81;100.00;97742.44;4998794;28;20288;-85
2023/09/12 03:36:51;;;;;;;14.07;10.70;;;;;;;16.80;100.00;97738.09;4998803;28;20214;-85
2023/09/12 03:39:17;;;;;;;13.80;10.43;;;;;;;16.85;100.00;97741.16;4999089;28;20213;-85
2023/09/12 03:41:44;;;;;;;13.17;9.73;;;;;;;16.89;100.00;97737.16;4999671;28;20234;-85
2023/09/12 03:44:10;;;;;;;13.10;10.90;;;;;;;16.90;100.00;97738.88;4999518;28;20220;-84
2023/09/12 03:46:38;;;;;;;14.50;10.57;;;;;;;16.91;100.00;97735.19;4999805;28;20217;-84
2023/09/12 03:49:05;;;;;;;13.00;10.37;;;;;;;16.89;100.00;97729.16;4998958;28;20653;-85
2023/09/12 03:51:31;;;;;;;14.13;10.10;;;;;;;16.84;100.00;97736.81;4999284;28;20233;-85
2023/09/12 03:53:58;;;;;;;13.20;9.87;;;;;;;16.83;100.00;97735.13;4999120;28;20629;-85
2023/09/12 03:56:24;;;;;;;15.80;10.80;;;;;;;16.85;100.00;97732.28;4998812;28;20237;-85
2023/09/12 03:58:51;;;;;;;17.30;10.87;;;;;;;16.86;100.00;97731.28;4998278;28;20205;-85
2023/09/12 04:01:17;;;;;;;11.83;10.10;;;;;;;16.83;100.00;97734.28;4998740;28;20266;-85
2023/09/12 04:03:47;;;;;;;15.53;10.17;;;;;;;16.81;100.00;97729.09;4998067;28;20206;-84
2023/09/12 04:06:13;;;;;;;13.27;9.50;;;;;;;16.79;100.00;97725.75;4998922;28;20210;-85
2023/09/12 04:08:40;;;;;;;11.47;8.80;;;;;;;16.72;100.00;97731.84;5000084;28;20224;-84
2023/09/12 04:11:06;;;;;;;14.23;9.70;;;;;;;16.66;100.00;97746.66;4999884;28;20238;-84
2023/09/12 04:13:34;;;;;;;13.03;9.63;;;;;;;16.71;100.00;97731.00;5000485;28;20290;-84
2023/09/12 04:16:00;;;;;;;12.77;9.47;;;;;;;16.78;100.00;97724.09;4999778;28;20237;-85
2023/09/12 04:18:27;;;;;;;14.10;9.93;;;;;;;16.80;100.00;97738.09;4999573;28;20206;-84
2023/09/12 04:20:57;;;;;;;13.73;10.07;;;;;;;16.81;100.00;97737.09;4999108;28;20230;-85
2023/09/12 04:23:23;;;;;;;12.83;9.97;;;;;;;16.87;100.00;97738.31;4996566;28;20210;-84
2023/09/12 04:25:50;;;;;;;14.53;10.77;;;;;;;16.94;100.00;97734.88;4995506;28;20221;-84
2023/09/12 04:28:16;;;;;;;14.83;10.23;;;;;;;17.01;100.00;97740.44;4995488;28;20213;-84
2023/09/12 04:30:43;;;;;;;16.17;11.00;;;;;;;17.07;100.00;97737.16;4994647;28;20234;-85
2023/09/12 04:33:09;;;;;;;14.27;10.73;;;;;;;17.12;100.00;97743.69;4994658;28;20237;-85
2023/09/12 04:35:36;;;;;;;12.67;10.50;;;;;;;17.18;100.00;97732.38;4994999;28;20304;-84
2023/09/12 04:38:04;;;;;;;13.17;10.07;;;;;;;17.23;100.00;97731.91;4995102;28;20232;-84
2023/09/12 04:40:31;;;;;;;14.50;10.53;;;;;;;17.26;100.00;97726.28;4994357;28;20230;-84
2023/09/12 04:42:57;;;;;;;13.77;10.53;;;;;;;17.30;100.00;97731.13;4993683;28;20249;-84
2023/09/12 04:45:24;;;;;;;14.90;10.60;;;;;;;17.31;100.00;97727.47;4994072;28;20209;-84
2023/09/12 04:47:50;;;;;;;15.30;10.23;;;;;;;17.35;100.00;97723.50;4994596;28;20210;-84
2023/09/12 04:50:17;;;;;;;14.77;10.77;;;;;;;17.39;100.00;97722.22;4993941;28;20234;-86
2023/09/12 04:52:43;;;;;;;15.20;11.00;;;;;;;17.44;100.00;97725.22;4995261;28;20583;-84
2023/09/12 04:55:11;;;;;;;14.77;10.97;;;;;;;17.49;100.00;97728.28;4995746;28;20245;-84
2023/09/12 04:57:38;;;;;;;16.70;10.87;;;;;;;17.50;100.00;97727.28;4995412;28;20210;-84
2023/09/12 05:00:06;;;;;;;16.00;11.33;;;;;;;17.60;100.00;97729.84;4996425;28;20210;-85
2023/09/12 05:02:32;;;;;;;15.00;10.70;;;;;;;17.59;100.00;97731.69;4999586;28;20244;-85
2023/09/12 05:04:59;;;;;;;14.43;10.80;;;;;;;17.55;100.00;97724.97;4999897;28;20217;-85
2023/09/12 05:07:25;;;;;;;14.03;10.83;;;;;;;17.58;100.00;97735.34;5000194;28;20206;-85
2023/09/12 05:09:52;;;;;;;15.23;11.27;;;;;;;17.64;100.00;97732.06;5001824;28;20224;-85
2023/09/12 05:12:20;;;;;;;14.40;11.27;;;;;;;17.66;100.00;97730.03;5002618;28;20241;-85
2023/09/12 05:14:46;;;;;;;16.10;11.53;;;;;;;17.69;100.00;97737.72;5004143;28;20213;-85
2023/09/12 05:17:13;;;;;;;15.53;10.87;;;;;;;17.71;100.00;97730.41;5001195;28;20214;-85
2023/09/12 05:19:39;;;;;;;13.87;10.37;;;;;;;17.76;100.00;97730.78;5001111;28;20221;-85
2023/09/12 05:22:06;;;;;;;13.13;10.80;;;;;;;17.79;100.00;97727.75;5000296;28;20230;-85
2023/09/12 05:24:32;;;;;;;14.03;10.60;;;;;;;17.84;100.00;97730.81;4998830;28;20210;-85
2023/09/12 05:26:59;;;;;;;14.03;10.97;;;;;;;17.93;100.00;97734.34;4997175;28;20579;-85
2023/09/12 05:29:26;;;;;;;15.27;10.93;;;;;;;17.97;100.00;97733.00;4997022;28;20217;-85
2023/09/12 05:31:53;;;;;;;15.17;10.87;;;;;;;18.05;100.00;97738.41;4996449;28;20724;-85
2023/09/12 05:34:19;;;;;;;17.23;11.07;;;;;;;18.14;100.00;97732.06;4997184;28;20614;-85
2023/09/12 05:36:46;;;;;;;15.17;10.60;;;;;;;18.22;100.00;97740.97;4996931;28;20234;-85
2023/09/12 05:39:14;;;;;;;13.80;10.30;;;;;;;18.31;100.00;97737.38;4996584;28;20205;-85
2023/09/12 05:41:40;;;;;;;14.80;10.67;;;;;;;18.36;100.00;97745.72;4996846;28;20234;-79
2023/09/12 05:44:07;;;;;;;14.33;11.17;;;;;;;18.45;100.00;97751.91;5005299;28;20214;-81
2023/09/12 05:46:34;;;;;;;13.50;10.30;;;;;;;18.51;100.00;97746.75;5013984;28;20237;-81
2023/09/12 05:49:01;;;;;;;13.83;10.27;;;;;;;18.57;100.00;97754.13;5015104;28;20213;-83
2023/09/12 05:51:28;;;;;;;14.43;10.17;;;;;;;18.70;100.00;97746.47;5013740;28;20258;-82
2023/09/12 05:53:54;;;;;;;15.70;10.90;;;;;;;18.88;100.00;97757.84;5003760;28;20534;-81
2023/09/12 05:56:21;;;;;;;16.77;11.27;;;;;;;18.96;100.00;97751.66;5001377;28;20238;-82
2023/09/12 05:58:50;;;;;;;13.57;10.20;;;;;;;19.09;100.00;97752.00;4994360;28;20592;-83
2023/09/12 06:01:16;;;;;;;14.77;10.30;;;;;;;19.18;100.00;97751.84;4995743;28;20230;-81
2023/09/12 06:03:44;;;;;;;13.83;10.03;;;;;;;19.31;100.00;97751.34;4997284;28;20210;-81
2023/09/12 06:06:11;;;;;;;16.73;10.80;;;;;;;19.48;100.00;97753.84;4999085;28;20209;-81
2023/09/12 06:08:38;;;;;;;13.40;9.93;;;;;;;19.62;100.00;97758.50;4994991;28;20214;-81
2023/09/12 06:11:04;;;;;;;13.00;9.67;;;;;;;19.73;100.00;97758.13;4995158;28;20238;-82
2023/09/12 06:13:32;;;;;;;12.70;9.93;;;;;;;19.89;100.00;97757.25;4995746;28;20216;-81
2023/09/12 06:15:58;;;;;;;13.77;10.13;;;;;;;19.97;100.00;97754.53;4995407;28;20730;-82
2023/09/12 06:18:28;;;;;;;13.07;9.80;;;;;;;20.08;100.00;97756.88;4995930;28;20206;-82
2023/09/12 06:20:56;;;;;;;12.47;10.20;;;;;;;20.18;100.00;97752.97;4995440;28;20234;-81
2023/09/12 06:23:23;;;;;;;12.47;9.47;;;;;;;20.23;100.00;97764.03;4995767;28;20228;-82
2023/09/12 06:25:50;;;;;;;14.23;9.97;;;;;;;20.29;100.00;97766.00;4995546;28;20849;-82
2023/09/12 06:28:25;;;;;;;11.97;9.97;;;;;;;20.31;100.00;97769.34;4995443;28;20305;-82
2023/09/12 06:30:52;;;;;;;13.90;9.70;;;;;;;20.34;100.00;97774.38;4995337;28;20240;-81
2023/09/12 06:33:18;;;;;;;10.13;8.60;;;;;;;20.40;100.00;97770.97;5001675;28;20210;-82
2023/09/12 06:35:49;;;;;;;12.53;9.93;;;;;;;20.47;100.00;97769.25;4995796;28;20230;-82
2023/09/12 06:38:17;;;;;;;12.07;8.97;;;;;;;20.54;100.00;97764.84;4995651;28;20637;-80
2023/09/12 06:40:44;;;;;;;11.10;8.53;;;;;;;20.61;100.00;97771.19;4995246;28;20233;-79
2023/09/12 06:43:10;;;;;;;10.55;8.95;;;;;;;20.68;100.00;97772.19;4994493;28;20445;-79
2023/09/12 06:45:37;;;;;;;9.93;8.07;;;;;;;20.69;100.00;97771.16;4994580;28;20253;-79
2023/09/12 06:48:05;;;;;;;11.57;9.30;;;;;;;20.73;100.00;97764.41;4993578;28;20218;-79
2023/09/12 06:50:31;;;;;;;10.37;8.20;;;;;;;20.74;100.00;97768.78;4993802;28;20226;-79
2023/09/12 06:52:57;;;;;;;11.43;9.37;;;;;;;20.77;100.00;97765.72;4995509;28;20225;-78
2023/09/12 06:55:26;;;;;;;11.77;9.10;;;;;;;20.80;100.00;97780.66;4995997;28;20704;-79
2023/09/12 06:57:52;;;;;;;14.40;9.90;;;;;;;20.87;100.00;97774.41;4998022;28;20220;-79
2023/09/12 07:00:19;;;;;;;12.17;9.43;;;;;;;20.90;100.00;97775.94;5000922;28;20230;-78
2023/09/12 07:02:46;;;;;;;11.50;9.17;;;;;;;20.94;100.00;97783.44;4998806;28;20272;-79
2023/09/12 07:05:13;;;;;;;13.37;10.47;;;;;;;20.98;100.00;97784.75;4997255;28;20225;-79
2023/09/12 07:07:39;;;;;;;11.83;9.60;;;;;;;21.02;100.00;97786.06;5010444;28;20194;-79
2023/09/12 07:10:07;;;;;;;13.13;10.13;;;;;;;21.08;100.00;97782.66;5003664;28;20206;-79
2023/09/12 07:12:35;;;;;;;12.63;9.73;;;;;;;21.15;99.57;97780.91;4994157;28;20206;-79
2023/09/12 07:15:02;;;;;;;14.50;10.07;;;;;;;21.25;98.93;97780.66;4994857;28;20559;-79
2023/09/12 07:17:28;;;;;;;12.33;9.83;;;;;;;21.33;98.88;97784.13;4995123;28;20234;-81
2023/09/12 07:19:55;;;;;;;15.87;10.97;;;;;;;21.46;97.29;97802.34;4997994;28;20254;-80
2023/09/12 07:22:21;;;;;;;11.63;9.20;;;;;;;21.53;97.01;97801.41;4997211;28;20212;-79
2023/09/12 07:24:48;;;;;;;11.87;9.60;;;;;;;21.58;96.71;97800.91;4998404;28;20589;-79
2023/09/12 07:27:14;;;;;;;11.07;8.70;;;;;;;21.62;96.52;97800.34;4997564;28;20210;-80
2023/09/12 07:29:42;;;;;;;12.77;9.53;;;;;;;21.62;95.35;97800.34;4976147;28;20222;-79
2023/09/12 07:32:08;;;;;;;11.47;10.03;;;;;;;21.65;94.66;97797.28;4975339;28;20302;-79
2023/09/12 07:34:35;;;;;;;10.83;9.00;;;;;;;21.65;95.12;97794.59;4974837;28;20220;-79
2023/09/12 07:37:03;;;;;;;12.37;9.47;;;;;;;21.66;95.46;97801.66;4974544;28;20227;-79
2023/09/12 07:39:29;;;;;;;10.83;9.63;;;;;;;21.70;95.47;97797.59;4974626;28;20257;-79
2023/09/12 07:41:56;;;;;;;12.97;10.10;;;;;;;21.75;95.35;97794.38;4974097;28;20247;-79
2023/09/12 07:44:22;;;;;;;10.67;9.30;;;;;;;21.83;94.98;97795.09;4974109;28;20714;-79
2023/09/12 07:46:50;;;;;;;12.90;9.90;;;;;;;21.89;94.39;97796.25;4974212;28;20704;-79
2023/09/12 07:49:17;;;;;;;11.53;9.40;;;;;;;21.95;94.01;97787.44;4974661;28;20221;-79
2023/09/12 07:51:43;;;;;;;13.43;9.60;;;;;;;22.04;93.30;97791.69;4974781;28;20238;-79
2023/09/12 07:54:10;;;;;;;13.10;9.60;;;;;;;22.20;92.99;97789.63;4974693;28;20211;-78
2023/09/12 07:56:36;;;;;;;13.20;9.67;;;;;;;22.53;91.36;97785.56;4974343;28;20234;-79
2023/09/12 07:59:03;;;;;;;13.20;9.33;;;;;;;22.83;90.41;97787.16;4975500;28;20229;-78
2023/09/12 08:01:29;;;;;;;12.33;9.53;;;;;;;23.14;88.70;97779.59;4974196;28;20318;-78
2023/09/12 08:03:57;;;;;;;11.95;10.15;;;;;;;23.48;86.74;97781.59;4982533;28;20442;-79
2023/09/12 08:06:25;;;;;;;13.03;8.90;;;;;;;23.79;84.38;97773.97;4984497;28;20297;-79
2023/09/12 08:08:51;;;;;;;10.63;9.17;;;;;;;24.02;82.57;97780.78;4988503;28;20214;-81
2023/09/12 08:11:18;;;;;;;11.20;8.67;;;;;;;24.16;80.57;97777.16;4997079;28;20442;-81
2023/09/12 08:13:49;;;;;;;9.90;8.83;;;;;;;24.15;79.59;97778.16;4994494;28;20276;-79
2023/09/12 08:16:15;;;;;;;12.13;9.27;;;;;;;24.16;79.80;97785.25;4986879;28;20317;-80
2023/09/12 08:18:42;;;;;;;9.83;8.33;;;;;;;24.11;79.23;97781.47;4984093;28;20210;-79
2023/09/12 08:21:11;;;;;;;10.87;8.57;;;;;;;24.06;80.77;97790.16;4989945;28;20262;-80
2023/09/12 08:23:37;;;;;;;10.53;9.07;;;;;;;24.17;80.14;97783.38;4990042;28;20211;-80
2023/09/12 08:26:04;;;;;;;10.60;8.60;;;;;;;24.26;78.63;97777.59;4994411;28;20199;-79
2023/09/12 08:28:30;;;;;;;10.57;8.27;;;;;;;24.27;78.88;97784.66;4987173;28;20207;-82
2023/09/12 08:30:57;;;;;;;9.00;8.10;;;;;;;24.25;79.42;97786.75;4981443;28;20231;-81
2023/09/12 08:33:24;;;;;;;9.07;8.10;;;;;;;24.19;79.28;97790.22;4997635;28;20202;-80
2023/09/12 08:35:50;;;;;;;9.67;8.67;;;;;;;24.12;78.59;97781.28;4997413;28;20247;-81
2023/09/12 08:38:18;;;;;;;10.30;8.00;;;;;;;24.16;78.34;97776.31;4997780;28;20225;-81
2023/09/12 08:40:49;;;;;;;9.90;8.40;;;;;;;24.25;78.38;97777.81;4997682;28;20215;-81
2023/09/12 08:43:16;;;;;;;9.53;7.83;;;;;;;24.38;77.62;97770.59;4997447;28;20179;-81
2023/09/12 08:45:44;;;;;;;10.37;8.50;;;;;;;24.56;75.34;97768.19;4992879;28;20203;-82
2023/09/12 08:48:11;;;;;;;9.17;8.17;;;;;;;24.65;74.79;97767.00;4974549;28;20213;-82
2023/09/12 08:50:38;;;;;;;11.80;7.73;;;;;;;24.69;74.94;97773.66;4990265;28;20219;-82
2023/09/12 08:53:05;;;;;;;8.97;8.07;;;;;;;24.75;75.19;97772.84;4998649;28;20203;-81
2023/09/12 08:55:35;;;;;;;10.00;8.47;;;;;;;24.84;74.55;97771.66;4991074;28;20203;-82
2023/09/12 08:58:03;;;;;;;10.57;9.00;;;;;;;24.96;72.33;97772.72;4996804;28;20238;-81
2023/09/12 09:00:30;;;;;;;9.90;8.17;;;;;;;25.07;70.92;97755.91;4997961;28;20223;-81
2023/09/12 09:02:57;;;;;;;10.03;8.40;;;;;;;25.10;72.50;97766.28;4991828;28;20266;-82
2023/09/12 09:05:25;;;;;;;11.40;9.15;;;;;;;25.24;72.99;97761.78;4998144;28;20195;-82
2023/09/12 09:07:52;;;;;;;10.40;8.07;;;;;;;25.32;72.32;97767.81;4994541;28;20214;-82
2023/09/12 09:10:20;;;;;;;10.47;8.27;;;;;;;25.53;70.87;97751.38;4997769;28;20233;-82
2023/09/12 09:12:48;;;;;;;11.03;8.00;;;;;;;25.75;70.70;97755.53;4996681;28;20214;-82
2023/09/12 09:15:21;;;;;;;9.90;8.33;;;;;;;25.93;69.73;97758.44;4998237;28;20226;-82
2023/09/12 09:17:49;;;;;;;10.10;8.40;;;;;;;26.05;69.31;97751.34;4998275;28;20218;-85
2023/09/12 09:20:23;;;;;;;10.10;7.80;;;;;;;26.11;68.88;97750.50;4997657;28;20215;-85
2023/09/12 09:23:00;;;;;;;12.60;8.60;;;;;;;26.19;67.62;97747.56;4996134;28;20215;-84
2023/09/12 09:25:27;;;;;;;9.95;8.77;;;;;;;26.28;65.71;97735.41;4994280;28;20206;-84
2023/09/12 09:27:55;;;;;;;10.30;8.13;;;;;;;26.34;66.08;97744.59;4998191;28;20229;-85
2023/09/12 09:30:40;;;;;;;10.02;8.38;;;;;;;26.35;65.75;97733.53;4997898;28;20221;-85
2023/09/12 09:35:43;;;;;;;9.10;7.97;;;;;;;26.45;64.38;97723.06;5734634;23;20237;-86
2023/09/12 09:38:10;;;;;;;8.67;7.70;;;;;;;26.57;62.75;97715.94;5024874;28;20249;-85
2023/09/12 09:41:26;;;;;;;8.87;7.87;;;;;;;26.69;60.68;97700.66;5900065;23;20220;-85
2023/09/12 09:43:54;;;;;;;9.07;7.63;;;;;;;26.82;60.06;97688.91;5012720;28;20615;-84
2023/09/12 09:46:21;;;;;;;10.38;7.97;;;;;;;26.88;61.02;97705.13;5044284;28;20220;-84
2023/09/12 09:48:50;;;;;;;10.55;8.20;;;;;;;26.88;62.33;97713.25;5059828;28;20199;-84
2023/09/12 09:51:17;;;;;;;9.18;7.80;;;;;;;27.00;60.76;97703.38;5071516;28;20220;-85
2023/09/12 09:53:43;;;;;;;9.93;6.90;;;;;;;27.04;60.13;97699.19;5004650;28;20281;-84
2023/09/12 09:56:13;;;;;;;9.23;7.40;;;;;;;27.11;58.82;97689.13;4916276;29;20213;-84
2023/09/12 09:58:48;;;;;;;7.40;6.70;;;;;;;27.19;58.65;97694.28;4863818;29;20221;-84
2023/09/12 10:01:19;;;;;;;11.95;7.10;;;;;;;27.19;59.37;97702.44;4750754;29;20596;-83
2023/09/12 10:03:47;;;;;;;8.45;7.47;;;;;;;27.22;59.22;97707.44;4689592;30;20234;-86
2023/09/12 10:06:15;;;;;;;10.10;7.88;;;;;;;27.27;59.08;97699.47;4669631;30;20218;-84
2023/09/12 10:08:44;;;;;;;9.50;7.38;;;;;;;27.33;59.04;97709.44;4668471;30;20245;-84
2023/09/12 10:11:11;;;;;;;8.77;7.00;;;;;;;27.46;57.02;97679.47;4668566;30;20234;-83
2023/09/12 10:13:41;;;;;;;7.78;6.95;;;;;;;27.40;56.07;97677.63;4668050;30;20230;-83
2023/09/12 10:16:09;;;;;;;10.25;7.22;;;;;;;27.40;57.26;97678.44;4668625;30;20218;-80
2023/09/12 10:18:44;;;;;;;8.95;7.40;;;;;;;27.50;57.78;97677.94;4667652;30;20222;-86
2023/09/12 10:21:20;;;;;;;7.20;6.45;;;;;;;27.68;56.65;97672.56;4667833;30;20238;-86
2023/09/12 10:23:50;;;;;;;9.02;7.32;;;;;;;27.85;54.46;97665.50;4667265;30;20709;-85
2023/09/12 10:26:18;;;;;;;10.15;7.45;;;;;;;27.86;54.98;97678.03;4667331;30;20480;-81
2023/09/12 10:28:47;;;;;;;8.60;7.18;;;;;;;27.94;54.06;97669.63;4666993;30;20469;-80
2023/09/12 10:31:15;;;;;;;8.65;6.90;;;;;;;27.80;53.86;97663.47;4673747;30;20246;-81
2023/09/12 10:33:44;;;;;;;7.82;6.68;;;;;;;27.92;53.51;97660.84;4690514;30;20214;-81
2023/09/12 10:36:12;;;;;;;10.25;7.20;;;;;;;27.93;53.08;97657.91;4691162;30;20195;-81
2023/09/12 10:38:43;;;;;;;10.10;7.00;;;;;;;27.82;53.15;97672.22;4691288;30;20202;-84
2023/09/12 10:41:12;;;;;;;6.90;6.20;;;;;;;27.90;53.44;97669.22;4684271;30;20242;-85
2023/09/12 10:43:40;;;;;;;9.55;6.53;;;;;;;27.94;53.02;97675.03;4679186;30;20233;-86
2023/09/12 10:46:07;;;;;;;7.72;6.40;;;;;;;28.04;53.55;97686.19;4677909;30;20289;-84
2023/09/12 10:48:35;;;;;;;8.23;7.43;;;;;;;28.20;54.12;97691.03;4678052;30;20238;-87
2023/09/12 10:51:05;;;;;;;8.25;6.68;;;;;;;28.31;53.74;97684.84;4674313;30;20245;-85
2023/09/12 10:53:33;;;;;;;7.88;7.07;;;;;;;28.49;53.37;97684.84;4673077;30;20253;-79
2023/09/12 10:56:01;;;;;;;7.20;6.43;;;;;;;28.60;53.34;97684.91;4671508;30;20230;-86
2023/09/12 10:58:28;;;;;;;11.50;6.95;;;;;;;28.63;52.11;97679.00;4673375;30;20245;-86
2023/09/12 11:01:23;;;;;;;9.45;6.85;;;;;;;28.64;50.48;97668.94;4633869;30;1098842;-86
2023/09/12 11:03:50;;;;;;;7.80;6.28;;;;;;;28.73;49.13;97681.19;4781711;29;20228;-83
2023/09/12 11:06:31;;;;;;;7.30;6.53;;;;;;;28.74;48.76;97677.38;4810691;29;20221;-83
2023/09/12 11:09:19;;;;;;;7.55;6.20;;;;;;;28.60;48.64;97690.34;4809799;29;20224;-83
2023/09/12 11:11:47;;;;;;;7.93;6.75;;;;;;;28.47;48.24;97671.47;4810434;29;20244;-83
2023/09/12 11:14:18;;;;;;;9.13;6.45;;;;;;;28.57;48.88;97682.66;4810495;29;20216;-83
2023/09/12 11:17:25;;;;;;;7.32;6.63;;;;;;;28.72;48.17;97668.59;4810001;29;20277;-83
2023/09/12 11:19:55;;;;;;;8.48;6.43;;;;;;;28.70;47.99;97668.88;4810889;29;20213;-83
2023/09/12 11:22:26;;;;;;;6.80;6.10;;;;;;;28.72;47.68;97663.16;4810074;29;20240;-83
2023/09/12 11:24:55;;;;;;;6.88;6.10;;;;;;;28.74;48.35;97664.59;4810259;29;20229;-82